createdAt,value
2023-12-09T00:00:32.571Z,0.40
2023-12-09T00:03:00.252Z,0.40
2023-12-09T00:05:27.958Z,0.50
2023-12-09T00:07:55.571Z,0.40
2023-12-09T00:10:23.482Z,0.40
2023-12-09T00:12:51.135Z,0.40
2023-12-09T00:15:18.899Z,0.50
2023-12-09T00:17:46.600Z,0.40
2023-12-09T00:20:14.277Z,0.40
2023-12-09T00:22:43.136Z,0.50
2023-12-09T00:25:11.023Z,0.40
2023-12-09T00:27:39.157Z,0.40
2023-12-09T00:30:08.908Z,0.40
2023-12-09T00:32:36.795Z,0.50
2023-12-09T00:35:04.906Z,0.50
2023-12-09T00:37:32.665Z,0.50
2023-12-09T00:40:00.368Z,0.40
2023-12-09T00:42:28.206Z,0.40
2023-12-09T00:44:56.028Z,0.30
2023-12-09T00:47:23.664Z,0.40
2023-12-09T00:49:51.387Z,0.30
2023-12-09T00:52:19.099Z,0.30
2023-12-09T00:54:46.683Z,0.30
2023-12-09T00:57:14.384Z,0.30
2023-12-09T00:59:42.010Z,0.30
2023-12-09T01:02:09.585Z,0.30
2023-12-09T01:04:37.582Z,0.30
2023-12-09T01:07:05.416Z,0.30
2023-12-09T01:09:33.299Z,0.30
2023-12-09T01:12:02.947Z,0.30
2023-12-09T01:14:30.642Z,0.20
2023-12-09T01:16:58.226Z,0.30
2023-12-09T01:19:25.825Z,0.30
2023-12-09T01:21:53.418Z,0.30
2023-12-09T01:24:21.493Z,0.30
2023-12-09T01:26:49.081Z,0.30
2023-12-09T01:29:16.769Z,0.30
2023-12-09T01:31:44.681Z,0.30
2023-12-09T01:34:12.409Z,0.30
2023-12-09T01:36:40.199Z,0.40
2023-12-09T01:39:07.796Z,0.30
2023-12-09T01:41:35.387Z,0.30
2023-12-09T01:44:03.546Z,0.30
2023-12-09T01:46:32.405Z,0.30
2023-12-09T01:49:00.341Z,0.40
2023-12-09T01:51:28.918Z,0.30
2023-12-09T01:53:56.896Z,0.30
2023-12-09T01:56:24.696Z,0.30
2023-12-09T01:58:52.729Z,0.30
2023-12-09T02:01:20.560Z,0.20
2023-12-09T02:03:51.604Z,0.30
2023-12-09T02:06:19.212Z,0.30
2023-12-09T02:08:47.207Z,0.30
2023-12-09T02:11:41.626Z,0.40
2023-12-09T02:14:17.920Z,0.40
2023-12-09T02:16:52.582Z,0.30
2023-12-09T02:19:21.599Z,0.30
2023-12-09T02:22:06.975Z,0.30
2023-12-09T02:24:34.993Z,0.30
2023-12-09T02:27:20.520Z,0.30
2023-12-09T02:30:29.371Z,0.40
2023-12-09T02:32:58.071Z,0.40
2023-12-09T02:35:29.027Z,0.40
2023-12-09T02:37:58.202Z,0.20
2023-12-09T02:40:28.012Z,0.30
2023-12-09T02:42:56.602Z,0.30
2023-12-09T02:45:24.653Z,0.30
2023-12-09T02:47:52.405Z,0.30
2023-12-09T02:50:20.207Z,0.30
2023-12-09T02:52:47.767Z,0.40
2023-12-09T02:55:15.574Z,0.40
2023-12-09T02:57:43.150Z,0.40
2023-12-09T03:00:11.343Z,0.40
2023-12-09T03:02:40.528Z,0.30
2023-12-09T03:05:08.530Z,0.40
2023-12-09T03:07:36.157Z,0.30
2023-12-09T03:10:04.066Z,0.40
2023-12-09T03:12:32.096Z,0.40
2023-12-09T03:14:59.720Z,0.40
2023-12-09T03:17:27.373Z,0.40
2023-12-09T03:19:54.969Z,0.40
2023-12-09T03:22:22.532Z,0.40
2023-12-09T03:24:50.160Z,0.30
2023-12-09T03:27:17.755Z,0.30
2023-12-09T03:29:45.328Z,0.40
2023-12-09T03:32:12.963Z,0.30
2023-12-09T03:34:40.622Z,0.40
2023-12-09T03:37:08.239Z,0.30
2023-12-09T03:39:36.099Z,0.30
2023-12-09T03:42:03.903Z,0.40
2023-12-09T03:44:31.783Z,0.30
2023-12-09T03:46:59.432Z,0.30
2023-12-09T03:49:27.125Z,0.30
2023-12-09T03:51:54.746Z,0.40
2023-12-09T03:54:22.396Z,0.20
2023-12-09T03:56:50.343Z,0.00
2023-12-09T03:59:17.912Z,0.20
2023-12-09T04:01:49.889Z,0.30
2023-12-09T04:04:18.128Z,0.30
2023-12-09T04:06:45.754Z,0.30
2023-12-09T04:09:13.558Z,0.40
2023-12-09T04:11:41.156Z,0.40
2023-12-09T04:14:08.809Z,0.40
2023-12-09T04:16:36.442Z,0.30
2023-12-09T04:19:04.600Z,0.30
2023-12-09T04:21:33.097Z,0.30
2023-12-09T04:24:00.659Z,0.40
2023-12-09T04:26:28.389Z,0.40
2023-12-09T04:28:55.979Z,0.30
2023-12-09T04:31:23.614Z,0.30
2023-12-09T04:33:51.278Z,0.30
2023-12-09T04:36:18.991Z,0.30
2023-12-09T04:38:46.570Z,0.40
2023-12-09T04:41:14.138Z,0.30
2023-12-09T04:43:41.717Z,0.30
2023-12-09T04:46:12.116Z,0.30
2023-12-09T04:48:39.817Z,0.30
2023-12-09T04:51:07.810Z,0.30
2023-12-09T04:53:37.178Z,0.30
2023-12-09T04:56:07.846Z,0.30
2023-12-09T04:58:36.051Z,0.30
2023-12-09T05:01:03.777Z,0.40
2023-12-09T05:03:32.291Z,0.40
2023-12-09T05:06:01.680Z,0.30
2023-12-09T05:08:29.778Z,0.30
2023-12-09T05:10:57.837Z,0.30
2023-12-09T05:13:25.417Z,0.30
2023-12-09T05:15:53.241Z,0.30
2023-12-09T05:18:20.984Z,0.30
2023-12-09T05:20:48.744Z,0.30
2023-12-09T05:23:16.967Z,0.30
2023-12-09T05:25:45.245Z,0.30
2023-12-09T05:28:12.898Z,0.20
2023-12-09T05:30:43.012Z,0.20
2023-12-09T05:33:11.825Z,0.30
2023-12-09T05:35:39.467Z,0.20
2023-12-09T05:38:07.171Z,0.20
2023-12-09T05:40:36.094Z,0.20
2023-12-09T05:43:04.023Z,0.30
2023-12-09T05:45:31.683Z,0.30
2023-12-09T05:47:59.743Z,0.20
2023-12-09T05:50:28.016Z,0.30
2023-12-09T05:52:56.210Z,0.20
2023-12-09T05:55:24.570Z,0.30
2023-12-09T05:57:52.104Z,0.20
2023-12-09T06:00:19.850Z,0.20
2023-12-09T06:02:47.453Z,0.30
2023-12-09T06:05:15.172Z,0.30
2023-12-09T06:07:42.784Z,0.20
2023-12-09T06:10:11.138Z,0.20
2023-12-09T06:12:42.249Z,0.30
2023-12-09T06:15:10.255Z,0.30
2023-12-09T06:17:38.166Z,0.20
2023-12-09T06:20:08.547Z,0.30
2023-12-09T06:22:36.221Z,0.30
2023-12-09T06:25:04.016Z,0.40
2023-12-09T06:27:32.417Z,0.30
2023-12-09T06:30:00.639Z,0.30
2023-12-09T06:32:28.736Z,0.30
2023-12-09T06:34:56.473Z,0.30
2023-12-09T06:37:24.181Z,0.30
2023-12-09T06:39:51.879Z,0.30
2023-12-09T06:42:19.520Z,0.30
2023-12-09T06:44:47.149Z,0.30
2023-12-09T06:47:14.761Z,0.30
2023-12-09T06:49:42.900Z,0.30
2023-12-09T06:52:10.711Z,0.30
2023-12-09T06:54:38.776Z,0.30
2023-12-09T06:57:06.485Z,0.30
2023-12-09T06:59:34.184Z,0.20
2023-12-09T07:02:01.696Z,0.30
2023-12-09T07:04:29.334Z,0.30
2023-12-09T07:07:03.265Z,0.30
2023-12-09T07:09:30.879Z,0.30
2023-12-09T07:12:02.077Z,0.30
2023-12-09T07:14:31.146Z,0.30
2023-12-09T07:16:58.707Z,0.40
2023-12-09T07:19:26.358Z,0.40
2023-12-09T07:21:54.368Z,0.40
2023-12-09T07:24:21.974Z,0.40
2023-12-09T07:26:49.693Z,0.40
2023-12-09T07:29:17.286Z,0.40
2023-12-09T07:31:44.901Z,0.40
2023-12-09T07:34:18.087Z,0.40
2023-12-09T07:36:45.908Z,0.40
2023-12-09T07:39:15.040Z,0.30
2023-12-09T07:41:44.204Z,0.40
2023-12-09T07:44:11.920Z,0.40
2023-12-09T07:46:39.934Z,0.40
2023-12-09T07:49:07.874Z,0.30
2023-12-09T07:51:36.390Z,0.40
2023-12-09T07:54:04.156Z,0.40
2023-12-09T07:56:32.223Z,0.40
2023-12-09T07:58:59.778Z,0.30
2023-12-09T08:01:28.016Z,0.40
2023-12-09T08:03:55.628Z,0.40
2023-12-09T08:06:23.267Z,0.40
2023-12-09T08:08:52.486Z,0.30
2023-12-09T08:11:20.605Z,0.50
2023-12-09T08:13:48.451Z,0.40
2023-12-09T08:16:16.172Z,0.40
2023-12-09T08:18:44.567Z,0.40
2023-12-09T08:21:12.450Z,0.40
2023-12-09T08:23:40.460Z,0.40
2023-12-09T08:26:08.796Z,0.40
2023-12-09T08:28:36.440Z,0.40
2023-12-09T08:31:05.668Z,0.50
2023-12-09T08:33:33.720Z,0.40
2023-12-09T08:36:01.443Z,0.40
2023-12-09T08:38:29.055Z,0.50
2023-12-09T08:40:56.641Z,0.50
2023-12-09T08:43:24.792Z,0.50
2023-12-09T08:45:52.770Z,0.50
2023-12-09T08:48:20.770Z,0.60
2023-12-09T08:50:48.547Z,0.60
2023-12-09T08:53:16.196Z,0.60
2023-12-09T08:55:43.837Z,0.50
2023-12-09T08:58:11.477Z,0.60
2023-12-09T09:00:39.345Z,0.50
2023-12-09T09:03:08.149Z,0.70
2023-12-09T09:05:36.196Z,0.70
2023-12-09T09:08:04.145Z,0.70
2023-12-09T09:10:31.866Z,0.60
2023-12-09T09:12:59.432Z,0.60
2023-12-09T09:15:28.542Z,0.60
2023-12-09T09:17:56.491Z,0.70
2023-12-09T09:20:24.455Z,0.70
2023-12-09T09:22:52.131Z,0.60
2023-12-09T09:25:19.773Z,0.60
2023-12-09T09:27:50.485Z,0.70
2023-12-09T09:30:23.747Z,0.70
2023-12-09T09:32:51.528Z,0.70
2023-12-09T09:35:19.222Z,0.70
2023-12-09T09:37:46.891Z,0.60
2023-12-09T09:40:15.403Z,0.70
2023-12-09T09:42:56.806Z,0.70
2023-12-09T09:45:30.264Z,0.70
2023-12-09T09:48:07.513Z,0.70
2023-12-09T09:50:43.269Z,0.70
2023-12-09T09:53:13.786Z,0.80
2023-12-09T09:55:44.932Z,0.70
2023-12-09T09:58:14.647Z,0.80
2023-12-09T10:00:42.587Z,0.80
2023-12-09T10:03:10.503Z,0.90
2023-12-09T10:05:38.447Z,0.80
2023-12-09T10:08:06.780Z,0.80
2023-12-09T10:10:35.909Z,0.80
2023-12-09T10:13:04.062Z,0.80
2023-12-09T10:15:33.277Z,0.70
2023-12-09T10:18:05.664Z,0.80
2023-12-09T10:20:36.499Z,0.80
2023-12-09T10:23:04.469Z,0.70
2023-12-09T10:25:32.083Z,0.70
2023-12-09T10:27:59.797Z,0.80
2023-12-09T10:30:28.456Z,0.80
2023-12-09T10:32:56.989Z,0.80
2023-12-09T10:35:24.749Z,0.70
2023-12-09T10:37:52.589Z,0.80
2023-12-09T10:40:22.862Z,0.70
2023-12-09T10:42:52.016Z,0.80
2023-12-09T10:45:19.853Z,0.70
2023-12-09T10:47:48.326Z,0.80
2023-12-09T10:50:16.075Z,0.70
2023-12-09T10:52:44.175Z,0.70
2023-12-09T10:55:11.808Z,0.80
2023-12-09T10:57:42.781Z,0.90
2023-12-09T11:00:12.458Z,0.90
2023-12-09T11:02:41.888Z,0.90
2023-12-09T11:05:13.125Z,0.80
2023-12-09T11:07:41.663Z,0.70
2023-12-09T11:10:11.849Z,0.80
2023-12-09T11:12:39.675Z,0.90
2023-12-09T11:15:19.739Z,0.80
2023-12-09T11:17:54.469Z,0.80
2023-12-09T11:20:23.430Z,0.80
2023-12-09T11:22:52.680Z,0.90
2023-12-09T11:25:21.660Z,0.90
2023-12-09T11:27:54.251Z,0.90
2023-12-09T11:30:38.125Z,0.90
2023-12-09T11:33:06.347Z,0.90
2023-12-09T11:35:36.302Z,0.90
2023-12-09T11:38:06.721Z,0.90
2023-12-09T11:40:34.848Z,0.80
2023-12-09T11:43:09.929Z,0.90
2023-12-09T11:45:40.752Z,1.00
2023-12-09T11:48:10.196Z,1.10
2023-12-09T11:50:40.706Z,1.10
2023-12-09T11:53:08.459Z,0.90
2023-12-09T11:55:36.387Z,0.90
2023-12-09T11:58:04.973Z,1.00
2023-12-09T12:00:32.755Z,1.00
2023-12-09T12:03:00.949Z,1.00
2023-12-09T12:05:28.629Z,1.10
2023-12-09T12:07:56.272Z,1.10
2023-12-09T12:10:23.959Z,1.20
2023-12-09T12:12:52.036Z,1.20
2023-12-09T12:15:20.153Z,1.20
2023-12-09T12:17:49.600Z,1.20
2023-12-09T12:20:17.394Z,1.20
2023-12-09T12:22:45.620Z,1.20
2023-12-09T12:25:13.305Z,1.00
2023-12-09T12:27:48.347Z,1.00
2023-12-09T12:30:16.462Z,1.10
2023-12-09T12:32:44.973Z,1.20
2023-12-09T12:35:13.024Z,1.20
2023-12-09T12:37:41.756Z,1.20
2023-12-09T12:40:10.118Z,1.10
2023-12-09T12:42:37.858Z,1.10
2023-12-09T12:45:20.739Z,1.10
2023-12-09T12:47:49.111Z,1.10
2023-12-09T12:50:20.176Z,1.20
2023-12-09T12:52:47.886Z,1.10
2023-12-09T12:55:15.543Z,1.10
2023-12-09T12:57:45.067Z,1.10
2023-12-09T13:00:16.002Z,1.10
2023-12-09T13:02:44.283Z,1.10
2023-12-09T13:05:12.122Z,1.10
2023-12-09T13:07:44.457Z,1.10
2023-12-09T13:10:12.897Z,1.10
2023-12-09T13:12:40.945Z,1.10
2023-12-09T13:15:10.046Z,1.00
2023-12-09T13:17:39.030Z,1.00
2023-12-09T13:20:10.470Z,1.00
2023-12-09T13:22:38.666Z,1.00
2023-12-09T13:25:07.073Z,1.00
2023-12-09T13:27:34.967Z,0.90
2023-12-09T13:30:05.984Z,1.00
2023-12-09T13:32:35.353Z,0.90
2023-12-09T13:35:04.626Z,1.00
2023-12-09T13:37:32.380Z,0.90
2023-12-09T13:40:00.279Z,0.90
2023-12-09T13:42:29.317Z,0.90
2023-12-09T13:44:57.299Z,0.90
2023-12-09T13:47:25.119Z,0.90
2023-12-09T13:49:52.845Z,0.90
2023-12-09T13:52:20.680Z,0.90
2023-12-09T13:54:49.809Z,0.90
2023-12-09T13:57:17.599Z,0.90
2023-12-09T13:59:45.366Z,0.90
2023-12-09T14:02:13.128Z,0.90
2023-12-09T14:04:41.025Z,0.90
2023-12-09T14:07:08.807Z,0.90
2023-12-09T14:09:36.585Z,0.90
2023-12-09T14:12:06.475Z,0.90
2023-12-09T14:14:34.297Z,0.90
2023-12-09T14:17:01.983Z,0.90
2023-12-09T14:19:30.913Z,0.80
2023-12-09T14:21:58.711Z,0.90
2023-12-09T14:24:26.409Z,0.80
2023-12-09T14:26:55.382Z,0.80
2023-12-09T14:29:23.161Z,0.70
2023-12-09T14:31:51.034Z,0.70
2023-12-09T14:34:18.758Z,0.80
2023-12-09T14:36:46.568Z,0.80
2023-12-09T14:39:16.279Z,0.80
2023-12-09T14:41:44.020Z,0.80
2023-12-09T14:44:11.847Z,0.80
2023-12-09T14:46:39.864Z,0.80
2023-12-09T14:49:07.884Z,0.80
2023-12-09T14:51:42.864Z,0.70
2023-12-09T14:54:17.491Z,0.70
2023-12-09T14:56:46.767Z,0.80
2023-12-09T14:59:14.859Z,0.70
2023-12-09T15:01:42.759Z,0.60
2023-12-09T15:04:10.647Z,0.60
2023-12-09T15:06:38.651Z,0.60
2023-12-09T15:09:06.347Z,0.60
2023-12-09T15:11:34.056Z,0.60
2023-12-09T15:14:01.675Z,0.60
2023-12-09T15:16:30.055Z,0.70
2023-12-09T15:18:58.063Z,0.60
2023-12-09T15:21:25.832Z,0.70
2023-12-09T15:23:53.538Z,0.70
2023-12-09T15:26:21.302Z,0.70
2023-12-09T15:28:50.508Z,0.70
2023-12-09T15:31:18.400Z,0.60
2023-12-09T15:33:46.334Z,0.70
2023-12-09T15:36:14.348Z,0.60
2023-12-09T15:38:42.623Z,0.50
2023-12-09T15:41:10.348Z,0.50
2023-12-09T15:43:38.400Z,0.60
2023-12-09T15:46:06.265Z,0.60
2023-12-09T15:48:34.234Z,0.60
2023-12-09T15:51:03.293Z,0.50
2023-12-09T15:53:31.126Z,0.60
2023-12-09T15:55:58.784Z,0.50
2023-12-09T15:58:26.465Z,0.50
2023-12-09T16:00:54.315Z,0.50
2023-12-09T16:03:22.308Z,0.60
2023-12-09T16:05:50.168Z,0.50
2023-12-09T16:08:17.860Z,0.50
2023-12-09T16:10:45.811Z,0.50
2023-12-09T16:13:13.491Z,0.60
2023-12-09T16:15:41.374Z,0.50
2023-12-09T16:18:11.321Z,0.50
2023-12-09T16:20:39.242Z,0.50
2023-12-09T16:23:07.186Z,0.50
2023-12-09T16:25:35.684Z,0.50
2023-12-09T16:28:03.978Z,0.50
2023-12-09T16:30:31.736Z,0.50
2023-12-09T16:32:59.563Z,0.50
2023-12-09T16:35:27.468Z,0.50
2023-12-09T16:37:55.444Z,0.40
2023-12-09T16:40:25.402Z,0.40
2023-12-09T16:42:53.071Z,0.40
2023-12-09T16:45:20.858Z,0.40
2023-12-09T16:47:48.816Z,0.30
2023-12-09T16:50:18.169Z,0.40
2023-12-09T16:52:45.858Z,0.40
2023-12-09T16:55:13.504Z,0.40
2023-12-09T16:57:41.204Z,0.40
2023-12-09T17:00:09.808Z,0.40
2023-12-09T17:02:37.601Z,0.50
2023-12-09T17:05:06.111Z,0.50
2023-12-09T17:07:33.823Z,0.50
2023-12-09T17:10:01.692Z,0.50
2023-12-09T17:12:29.877Z,0.40
2023-12-09T17:14:57.943Z,0.50
2023-12-09T17:17:25.781Z,0.50
2023-12-09T17:19:53.502Z,0.50
2023-12-09T17:22:21.242Z,0.50
2023-12-09T17:24:48.933Z,0.50
2023-12-09T17:27:16.811Z,0.40
2023-12-09T17:29:45.155Z,0.50
2023-12-09T17:32:14.063Z,0.50
2023-12-09T17:34:41.896Z,0.40
2023-12-09T17:37:09.758Z,0.40
2023-12-09T17:39:37.739Z,0.50
2023-12-09T17:42:06.079Z,0.40
2023-12-09T17:44:35.352Z,0.40
2023-12-09T17:47:03.122Z,0.40
2023-12-09T17:49:30.965Z,0.50
2023-12-09T17:52:01.479Z,0.40
2023-12-09T17:54:29.651Z,0.40
2023-12-09T17:56:57.610Z,0.40
2023-12-09T17:59:25.289Z,0.40
2023-12-09T18:01:52.896Z,0.40
2023-12-09T18:04:20.589Z,0.50
2023-12-09T18:06:48.421Z,0.50
2023-12-09T18:09:16.180Z,0.50
2023-12-09T18:11:44.225Z,0.40
2023-12-09T18:14:12.220Z,0.30
2023-12-09T18:16:39.952Z,0.40
2023-12-09T18:19:07.887Z,0.40
2023-12-09T18:21:36.411Z,0.40
2023-12-09T18:24:05.002Z,0.50
2023-12-09T18:26:33.057Z,0.50
2023-12-09T18:29:01.008Z,0.40
2023-12-09T18:31:29.230Z,0.50
2023-12-09T18:33:57.545Z,0.50
2023-12-09T18:36:25.567Z,0.40
2023-12-09T18:38:53.512Z,0.40
2023-12-09T18:41:21.387Z,0.40
2023-12-09T18:43:50.179Z,0.40
2023-12-09T18:46:18.152Z,0.40
2023-12-09T18:48:45.876Z,0.40
2023-12-09T18:51:13.611Z,0.40
2023-12-09T18:53:41.531Z,0.30
2023-12-09T18:56:10.310Z,0.40
2023-12-09T18:58:38.146Z,0.40
2023-12-09T19:01:10.781Z,0.40
2023-12-09T19:03:39.992Z,0.40
2023-12-09T19:06:10.323Z,0.40
2023-12-09T19:08:39.169Z,0.30
2023-12-09T19:11:07.406Z,0.30
2023-12-09T19:13:35.137Z,0.30
2023-12-09T19:16:03.688Z,0.30
2023-12-09T19:18:31.451Z,0.30
2023-12-09T19:20:59.344Z,0.40
2023-12-09T19:23:27.067Z,0.40
2023-12-09T19:25:54.741Z,0.30
2023-12-09T19:28:22.526Z,0.40
2023-12-09T19:30:50.250Z,0.40
2023-12-09T19:33:18.215Z,0.30
2023-12-09T19:35:45.944Z,0.40
2023-12-09T19:38:13.767Z,0.30
2023-12-09T19:40:41.470Z,0.30
2023-12-09T19:43:09.154Z,0.30
2023-12-09T19:45:36.891Z,0.20
2023-12-09T19:48:04.890Z,0.30
2023-12-09T19:50:32.734Z,0.30
2023-12-09T19:53:02.261Z,0.30
2023-12-09T19:55:30.829Z,0.30
2023-12-09T19:57:58.577Z,0.20
2023-12-09T20:00:26.222Z,0.30
2023-12-09T20:02:54.120Z,0.20
2023-12-09T20:05:23.232Z,0.20
2023-12-09T20:07:50.878Z,0.20
2023-12-09T20:10:18.721Z,0.10
2023-12-09T20:12:46.559Z,0.20
2023-12-09T20:15:14.391Z,0.10
2023-12-09T20:17:42.163Z,0.10
2023-12-09T20:20:10.173Z,0.20
2023-12-09T20:22:37.931Z,0.20
2023-12-09T20:25:06.312Z,0.20
2023-12-09T20:27:34.234Z,0.30
2023-12-09T20:30:03.805Z,0.20
2023-12-09T20:32:33.258Z,0.10
2023-12-09T20:35:01.074Z,0.20
2023-12-09T20:37:28.767Z,0.10
2023-12-09T20:39:58.385Z,0.10
2023-12-09T20:42:26.203Z,0.10
2023-12-09T20:44:54.214Z,0.10
2023-12-09T20:47:22.018Z,0.10
2023-12-09T20:49:49.790Z,0.10
2023-12-09T20:52:17.764Z,0.10
2023-12-09T20:54:48.132Z,0.10
2023-12-09T20:57:16.007Z,0.10
2023-12-09T20:59:44.426Z,0.10
2023-12-09T21:02:12.223Z,0.20
2023-12-09T21:04:47.134Z,0.10
2023-12-09T21:07:14.856Z,0.10
2023-12-09T21:09:42.925Z,0.20
2023-12-09T21:12:10.688Z,0.10
2023-12-09T21:14:39.282Z,0.10
2023-12-09T21:17:07.073Z,0.10
2023-12-09T21:19:36.177Z,0.20
2023-12-09T21:22:04.310Z,0.20
2023-12-09T21:24:32.671Z,0.10
2023-12-09T21:27:00.492Z,0.20
2023-12-09T21:29:28.456Z,0.10
2023-12-09T21:31:56.312Z,0.10
2023-12-09T21:34:24.137Z,0.00
2023-12-09T21:36:51.834Z,0.10
2023-12-09T21:39:19.629Z,0.10
2023-12-09T21:41:48.039Z,0.00
2023-12-09T21:44:15.698Z,0.00
2023-12-09T21:46:43.383Z,0.00
2023-12-09T21:49:11.312Z,0.00
2023-12-09T21:51:40.812Z,0.00
2023-12-09T21:54:08.876Z,0.00
2023-12-09T21:56:36.814Z,0.00
2023-12-09T21:59:04.580Z,0.00
2023-12-09T22:01:32.243Z,0.10
2023-12-09T22:03:59.910Z,0.00
2023-12-09T22:06:27.662Z,0.00
2023-12-09T22:08:55.546Z,0.00
2023-12-09T22:11:23.222Z,-0.10
2023-12-09T22:13:50.891Z,-0.20
2023-12-09T22:16:21.886Z,-0.30
2023-12-09T22:18:50.402Z,-0.30
2023-12-09T22:21:18.325Z,-0.30
2023-12-09T22:23:46.091Z,-0.40
2023-12-09T22:26:14.534Z,-0.30
2023-12-09T22:28:42.882Z,-0.30
2023-12-09T22:31:11.064Z,-0.30
2023-12-09T22:33:41.257Z,-0.20
2023-12-09T22:36:10.218Z,-0.30
2023-12-09T22:38:38.023Z,-0.40
2023-12-09T22:41:06.288Z,-0.50
2023-12-09T22:43:34.051Z,-0.40
2023-12-09T22:46:01.653Z,-0.40
2023-12-09T22:48:29.738Z,-0.30
2023-12-09T22:50:57.642Z,-0.40
2023-12-09T22:53:25.511Z,-0.50
2023-12-09T22:55:53.413Z,-0.40
2023-12-09T22:58:39.682Z,-0.50
2023-12-09T23:01:07.678Z,-0.40
2023-12-09T23:03:36.240Z,-0.30
2023-12-09T23:06:04.123Z,-0.40
2023-12-09T23:08:31.855Z,-0.40
2023-12-09T23:10:59.489Z,-0.40
2023-12-09T23:13:27.077Z,-0.40
2023-12-09T23:15:54.862Z,-0.40
2023-12-09T23:18:22.773Z,-0.50
2023-12-09T23:20:50.826Z,-0.50
2023-12-09T23:23:18.601Z,-0.60
2023-12-09T23:25:46.194Z,-0.40
2023-12-09T23:28:13.921Z,-0.50
2023-12-09T23:30:41.773Z,-0.40
2023-12-09T23:33:09.727Z,-0.40
2023-12-09T23:35:37.500Z,-0.40
2023-12-09T23:38:05.431Z,-0.30
2023-12-09T23:40:33.054Z,-0.40
2023-12-09T23:43:00.750Z,-0.30
2023-12-09T23:45:28.623Z,-0.40
2023-12-09T23:47:56.373Z,-0.40
2023-12-09T23:50:24.508Z,-0.50
2023-12-09T23:52:52.532Z,-0.50
2023-12-09T23:55:20.457Z,-0.50
2023-12-09T23:57:48.270Z,-0.50
